Time;durP1;ratioP1;P1;durP2;ratioP2;P2;SDS_P1;SDS_P2;PMS_P1;PMS_P2;Temp;Humidity;BMP_temperature;BMP_pressure;BME280_temperature;BME280_humidity;BME280_pressure;Samples;Min_cycle;Max_cycle;Signal;HPM_P1;HPM_P2
2022/12/23 00:02:00;;;;;;;;;;;;;;;;;;5029559;28;19925;-66
2022/12/23 00:04:26;;;;;;;;;;;;;;;;;;5030254;28;20362;-66
2022/12/23 00:06:52;;;;;;;;;;;;;;;;;;5030028;28;19935;-67
2022/12/23 00:09:18;;;;;;;;;;;;;;;;;;5030056;28;19960;-66
2022/12/23 00:17:13;;;;;;;;;;;;;;;;;;5029468;28;19949;-66
2022/12/23 00:19:39;;;;;;;;;;;;;;;;;;5029716;28;20011;-67
2022/12/23 00:22:05;;;;;;;;;;;;;;;;;;5023323;28;20632;-67
2022/12/23 00:24:31;;;;;;;;;;;;;;;;;;5029851;28;19917;-67
2022/12/23 00:26:57;;;;;;;;;;;;;;;;;;5029805;28;19913;-67
2022/12/23 00:29:23;;;;;;;;;;;;;;;;;;5029563;28;19917;-66
2022/12/23 00:31:48;;;;;;;;;;;;;;;;;;5029087;28;19917;-67
2022/12/23 00:34:16;;;;;;;;;;;;;;;;;;5029563;28;19921;-67
2022/12/23 00:36:41;;;;;;;;;;;;;;;;;;5029840;28;19913;-67
2022/12/23 00:44:37;;;;;;;;;;;;;;;;;;5028643;28;19972;-66
2022/12/23 00:47:03;;;;;;;;;;;;;;;;;;5029501;28;19956;-67
2022/12/23 00:49:41;;;;;;;;;;;;;;;;;;5029929;28;19913;-67
2022/12/23 00:52:07;;;;;;;;;;;;;;;;;;5029122;28;20016;-67
2022/12/23 00:54:32;;;;;;;;;;;;;;;;;;5029230;28;20004;-67
2022/12/23 00:56:58;;;;;;;;;;;;;;;;;;5029369;28;20297;-67
2022/12/23 00:59:24;;;;;;;;;;;;;;;;;;5028988;28;19909;-66
2022/12/23 01:07:19;;;;;;;;;;;;;;;;;;5029460;28;20397;-66
2022/12/23 01:09:45;;;;;;;;;;;;;;;;;;5028451;28;19921;-66
2022/12/23 01:12:11;;;;;;;;;;;;;;;;;;5022700;28;19913;-66
2022/12/23 01:14:37;;;;;;;;;;;;;;;;;;5028150;28;19953;-66
2022/12/23 01:17:03;;;;;;;;;;;;;;;;;;5028899;28;19966;-66
2022/12/23 01:19:29;;;;;;;;;;;;;;;;;;5029396;28;20267;-66
2022/12/23 01:21:55;;;;;;;;;;;;;;;;;;5028948;28;19928;-66
2022/12/23 01:24:21;;;;;;;;;;;;;;;;;;5028731;28;19920;-66
2022/12/23 01:26:47;;;;;;;;;;;;;;;;;;5032839;28;19909;-66
2022/12/23 01:29:13;;;;;;;;;;;;;;;;;;5032890;28;19913;-66
2022/12/23 01:31:39;;;;;;;;;;;;;;;;;;5032429;28;19913;-66
2022/12/23 01:34:05;;;;;;;;;;;;;;;;;;5031661;28;19917;-66
2022/12/23 01:36:30;;;;;;;;;;;;;;;;;;5032483;28;19917;-66
2022/12/23 01:38:56;;;;;;;;;;;;;;;;;;5032466;28;19913;-66
2022/12/23 01:44:07;;;;;;;;;;;;;;;;;;5032381;28;20409;-66
2022/12/23 01:46:32;;;;;;;;;;;;;;;;;;5032490;28;19909;-66
2022/12/23 01:48:58;;;;;;;;;;;;;;;;;;5031702;28;19917;-67
2022/12/23 01:51:24;;;;;;;;;;;;;;;;;;5031617;28;20011;-66
2022/12/23 01:53:50;;;;;;;;;;;;;;;;;;5032573;28;19913;-66
2022/12/23 01:56:16;;;;;;;;;;;;;;;;;;5032215;28;20003;-66
2022/12/23 01:58:42;;;;;;;;;;;;;;;;;;5032445;28;19916;-66
2022/12/23 02:03:52;;;;;;;;;;;;;;;;;;5032618;28;19923;-66
2022/12/23 02:09:18;;;;;;;;;;;;;;;;;;5032221;28;19916;-66
2022/12/23 02:11:44;;;;;;;;;;;;;;;;;;5031971;28;19913;-66
2022/12/23 02:16:55;;;;;;;;;;;;;;;;;;5032374;28;19916;-66
2022/12/23 02:19:20;;;;;;;;;;;;;;;;;;5031459;28;19913;-66
2022/12/23 02:21:47;;;;;;;;;;;;;;;;;;5031861;28;19913;-66
2022/12/23 02:24:12;;;;;;;;;;;;;;;;;;5031552;28;20333;-66
2022/12/23 02:26:38;;;;;;;;;;;;;;;;;;5031268;28;19955;-66
2022/12/23 02:29:04;;;;;;;;;;;;;;;;;;5024919;28;19917;-66
2022/12/23 02:31:30;;;;;;;;;;;;;;;;;;5031354;28;19909;-66
2022/12/23 02:33:56;;;;;;;;;;;;;;;;;;5031373;28;19959;-66
2022/12/23 02:36:22;;;;;;;;;;;;;;;;;;5031346;28;20291;-67
2022/12/23 02:38:48;;;;;;;;;;;;;;;;;;5031580;28;19913;-67
2022/12/23 02:41:14;;;;;;;;;;;;;;;;;;5031635;28;20346;-66
2022/12/23 02:43:40;;;;;;;;;;;;;;;;;;5031168;28;19943;-66
2022/12/23 02:46:05;;;;;;;;;;;;;;;;;;5031490;28;20008;-66
2022/12/23 02:48:31;;;;;;;;;;;;;;;;;;5030896;28;19959;-67
2022/12/23 02:50:57;;;;;;;;;;;;;;;;;;5031254;28;20641;-67
2022/12/23 02:53:23;;;;;;;;;;;;;;;;;;5031096;28;19920;-66
2022/12/23 02:55:49;;;;;;;;;;;;;;;;;;5031198;28;19916;-67
2022/12/23 02:58:15;;;;;;;;;;;;;;;;;;5031322;28;19909;-67
2022/12/23 03:00:41;;;;;;;;;;;;;;;;;;5031522;28;19963;-67
2022/12/23 03:03:07;;;;;;;;;;;;;;;;;;5031293;28;19951;-66
2022/12/23 03:05:32;;;;;;;;;;;;;;;;;;5031440;28;19913;-66
2022/12/23 03:07:58;;;;;;;;;;;;;;;;;;5025831;28;19924;-66
2022/12/23 03:10:24;;;;;;;;;;;;;;;;;;5030905;28;19978;-66
2022/12/23 03:12:50;;;;;;;;;;;;;;;;;;5030542;28;20325;-66
2022/12/23 03:15:16;;;;;;;;;;;;;;;;;;5031238;28;19957;-67
2022/12/23 03:17:42;;;;;;;;;;;;;;;;;;5031246;28;20389;-65
2022/12/23 03:20:08;;;;;;;;;;;;;;;;;;5030791;28;19916;-66
2022/12/23 03:22:34;;;;;;;;;;;;;;;;;;5030901;28;19927;-66
2022/12/23 03:25:00;;;;;;;;;;;;;;;;;;5030537;28;19917;-66
2022/12/23 03:27:26;;;;;;;;;;;;;;;;;;5031204;28;19967;-66
2022/12/23 03:29:52;;;;;;;;;;;;;;;;;;5030101;28;20354;-66
2022/12/23 03:32:18;;;;;;;;;;;;;;;;;;5030855;28;19948;-67
2022/12/23 03:34:44;;;;;;;;;;;;;;;;;;5030785;28;19917;-66
2022/12/23 03:37:10;;;;;;;;;;;;;;;;;;5030295;28;19913;-66
2022/12/23 03:39:36;;;;;;;;;;;;;;;;;;5030541;28;19956;-66
2022/12/23 03:42:02;;;;;;;;;;;;;;;;;;5030474;28;19948;-66
2022/12/23 03:44:27;;;;;;;;;;;;;;;;;;5030367;28;19913;-67
2022/12/23 03:46:53;;;;;;;;;;;;;;;;;;5030041;28;19952;-66
2022/12/23 03:49:19;;;;;;;;;;;;;;;;;;5030166;28;19909;-66
2022/12/23 03:51:45;;;;;;;;;;;;;;;;;;5030014;28;19920;-66
2022/12/23 03:54:11;;;;;;;;;;;;;;;;;;5030068;28;20031;-66
2022/12/23 03:56:37;;;;;;;;;;;;;;;;;;5030300;28;20840;-67
2022/12/23 03:59:03;;;;;;;;;;;;;;;;;;5030121;28;19920;-66
2022/12/23 04:01:29;;;;;;;;;;;;;;;;;;5030303;28;19982;-67
2022/12/23 04:03:55;;;;;;;;;;;;;;;;;;5029960;28;19975;-67
2022/12/23 04:06:20;;;;;;;;;;;;;;;;;;5030067;28;19958;-67
2022/12/23 04:08:46;;;;;;;;;;;;;;;;;;5029846;28;19920;-66
2022/12/23 04:11:12;;;;;;;;;;;;;;;;;;5029858;28;19916;-66
2022/12/23 04:13:38;;;;;;;;;;;;;;;;;;5028232;28;20321;-66
2022/12/23 04:16:04;;;;;;;;;;;;;;;;;;5030096;28;20011;-66
2022/12/23 04:18:30;;;;;;;;;;;;;;;;;;5029988;28;20298;-66
2022/12/23 04:20:56;;;;;;;;;;;;;;;;;;5030232;28;19916;-65
2022/12/23 04:23:22;;;;;;;;;;;;;;;;;;5029440;28;19929;-67
2022/12/23 04:25:48;;;;;;;;;;;;;;;;;;5029692;28;19913;-66
2022/12/23 04:28:13;;;;;;;;;;;;;;;;;;5030284;28;20098;-66
2022/12/23 04:30:39;;;;;;;;;;;;;;;;;;5029754;28;19994;-66
2022/12/23 04:33:05;;;;;;;;;;;;;;;;;;5022658;28;19921;-67
2022/12/23 04:35:31;;;;;;;;;;;;;;;;;;5029686;28;19909;-67
2022/12/23 04:37:57;;;;;;;;;;;;;;;;;;5029048;28;19913;-66
2022/12/23 04:40:23;;;;;;;;;;;;;;;;;;5029407;28;19913;-66
2022/12/23 04:42:49;;;;;;;;;;;;;;;;;;5029875;28;19968;-67
2022/12/23 04:45:15;;;;;;;;;;;;;;;;;;5029309;28;19913;-66
2022/12/23 04:47:41;;;;;;;;;;;;;;;;;;5029114;28;19967;-66
2022/12/23 04:50:06;;;;;;;;;;;;;;;;;;5029198;28;19952;-66
2022/12/23 04:52:32;;;;;;;;;;;;;;;;;;5029066;28;19909;-66
2022/12/23 04:54:58;;;;;;;;;;;;;;;;;;5029145;28;20421;-66
2022/12/23 04:57:24;;;;;;;;;;;;;;;;;;5029542;28;19913;-66
2022/12/23 04:59:50;;;;;;;;;;;;;;;;;;5028917;28;20329;-64
2022/12/23 05:02:16;;;;;;;;;;;;;;;;;;5029064;28;19959;-66
2022/12/23 05:04:42;;;;;;;;;;;;;;;;;;5029065;28;20286;-66
2022/12/23 05:07:07;;;;;;;;;;;;;;;;;;5028784;28;19909;-66
2022/12/23 05:09:33;;;;;;;;;;;;;;;;;;5029419;28;20370;-66
2022/12/23 05:11:59;;;;;;;;;;;;;;;;;;5029535;28;19914;-66
2022/12/23 05:14:25;;;;;;;;;;;;;;;;;;5028932;28;19932;-65
2022/12/23 05:16:51;;;;;;;;;;;;;;;;;;5022638;28;19999;-66
2022/12/23 05:19:17;;;;;;;;;;;;;;;;;;5029186;28;19920;-66
2022/12/23 05:21:43;;;;;;;;;;;;;;;;;;5028732;28;19909;-66
2022/12/23 05:24:09;;;;;;;;;;;;;;;;;;5028976;28;19917;-66
2022/12/23 05:26:35;;;;;;;;;;;;;;;;;;5028906;28;19917;-66
2022/12/23 05:29:00;;;;;;;;;;;;;;;;;;5029338;28;19913;-66
2022/12/23 05:31:26;;;;;;;;;;;;;;;;;;5029503;28;19999;-66
2022/12/23 05:33:52;;;;;;;;;;;;;;;;;;5028832;28;19910;-66
2022/12/23 05:36:18;;;;;;;;;;;;;;;;;;5028677;28;19913;-65
2022/12/23 05:38:44;;;;;;;;;;;;;;;;;;5028681;28;19940;-67
2022/12/23 05:41:10;;;;;;;;;;;;;;;;;;5029318;28;19913;-67
2022/12/23 05:43:36;;;;;;;;;;;;;;;;;;5028623;28;20555;-67
2022/12/23 05:46:02;;;;;;;;;;;;;;;;;;5029012;28;19921;-66
2022/12/23 05:48:28;;;;;;;;;;;;;;;;;;5028706;28;19916;-67
2022/12/23 05:50:53;;;;;;;;;;;;;;;;;;5028237;28;19921;-67
2022/12/23 05:53:19;;;;;;;;;;;;;;;;;;5028823;28;19963;-67
2022/12/23 05:55:45;;;;;;;;;;;;;;;;;;5028446;28;19920;-67
2022/12/23 05:58:11;;;;;;;;;;;;;;;;;;5027918;28;19913;-67
2022/12/23 06:00:37;;;;;;;;;;;;;;;;;;5028532;28;19912;-67
2022/12/23 06:03:03;;;;;;;;;;;;;;;;;;5027853;28;19991;-67
2022/12/23 06:05:29;;;;;;;;;;;;;;;;;;5028907;28;19913;-68
2022/12/23 06:07:55;;;;;;;;;;;;;;;;;;5028425;28;20293;-67
2022/12/23 06:10:21;;;;;;;;;;;;;;;;;;5029480;28;19920;-68
2022/12/23 06:12:47;;;;;;;;;;;;;;;;;;5032352;28;19939;-67
2022/12/23 06:15:12;;;;;;;;;;;;;;;;;;5032471;28;19921;-68
2022/12/23 06:17:38;;;;;;;;;;;;;;;;;;5031157;28;19913;-68
2022/12/23 06:20:04;;;;;;;;;;;;;;;;;;5032120;28;19956;-67
2022/12/23 06:22:30;;;;;;;;;;;;;;;;;;5031955;28;19917;-67
2022/12/23 06:24:56;;;;;;;;;;;;;;;;;;5032057;28;19913;-67
2022/12/23 06:27:22;;;;;;;;;;;;;;;;;;5031811;28;19917;-67
2022/12/23 06:29:48;;;;;;;;;;;;;;;;;;5032107;28;19949;-65
2022/12/23 06:32:14;;;;;;;;;;;;;;;;;;5031578;28;19936;-67
2022/12/23 06:34:39;;;;;;;;;;;;;;;;;;5031452;28;20294;-67
2022/12/23 06:37:05;;;;;;;;;;;;;;;;;;5025183;28;19921;-66
2022/12/23 06:39:31;;;;;;;;;;;;;;;;;;5032140;28;20369;-67
2022/12/23 06:41:57;;;;;;;;;;;;;;;;;;5031393;28;19919;-66
2022/12/23 06:44:23;;;;;;;;;;;;;;;;;;5031810;28;20449;-67
2022/12/23 06:46:49;;;;;;;;;;;;;;;;;;5031522;28;19940;-67
2022/12/23 06:49:15;;;;;;;;;;;;;;;;;;5031553;28;20301;-67
2022/12/23 06:51:41;;;;;;;;;;;;;;;;;;5031288;28;19952;-67
2022/12/23 06:54:06;;;;;;;;;;;;;;;;;;5031734;28;20378;-67
2022/12/23 06:56:33;;;;;;;;;;;;;;;;;;5031262;28;19920;-67
2022/12/23 06:58:58;;;;;;;;;;;;;;;;;;5031567;28;20004;-67
2022/12/23 07:01:24;;;;;;;;;;;;;;;;;;5030656;28;20024;-67
2022/12/23 07:03:50;;;;;;;;;;;;;;;;;;5031216;28;19921;-67
2022/12/23 07:06:16;;;;;;;;;;;;;;;;;;5031468;28;19913;-68
2022/12/23 07:08:42;;;;;;;;;;;;;;;;;;5031808;28;20305;-68
2022/12/23 07:11:08;;;;;;;;;;;;;;;;;;5031091;28;20313;-67
2022/12/23 07:13:34;;;;;;;;;;;;;;;;;;5030867;28;19928;-67
2022/12/23 07:16:00;;;;;;;;;;;;;;;;;;5030863;28;19909;-66
2022/12/23 07:18:26;;;;;;;;;;;;;;;;;;5031385;28;19919;-67
2022/12/23 07:20:52;;;;;;;;;;;;;;;;;;5030970;28;19956;-67
2022/12/23 07:23:18;;;;;;;;;;;;;;;;;;5029833;28;20063;-67
2022/12/23 07:25:44;;;;;;;;;;;;;;;;;;5031188;28;19971;-67
2022/12/23 07:28:10;;;;;;;;;;;;;;;;;;5030988;28;19916;-67
2022/12/23 07:30:35;;;;;;;;;;;;;;;;;;5030946;28;19987;-66
2022/12/23 07:33:01;;;;;;;;;;;;;;;;;;5030487;28;20452;-67
2022/12/23 07:35:27;;;;;;;;;;;;;;;;;;5031348;28;19955;-67
2022/12/23 07:37:54;;;;;;;;;;;;;;;;;;5029978;28;20397;-67
2022/12/23 07:40:20;;;;;;;;;;;;;;;;;;5030706;28;19913;-68
2022/12/23 07:42:46;;;;;;;;;;;;;;;;;;5030370;28;19924;-67
2022/12/23 07:45:12;;;;;;;;;;;;;;;;;;5030242;28;20532;-68
2022/12/23 07:47:37;;;;;;;;;;;;;;;;;;5030402;28;19913;-68
2022/12/23 07:50:03;;;;;;;;;;;;;;;;;;5030441;28;20075;-68
2022/12/23 07:52:29;;;;;;;;;;;;;;;;;;5029851;28;19920;-68
2022/12/23 07:54:55;;;;;;;;;;;;;;;;;;5029947;28;19959;-68
2022/12/23 07:57:21;;;;;;;;;;;;;;;;;;5029640;28;19909;-69
2022/12/23 07:59:47;;;;;;;;;;;;;;;;;;5029660;28;20004;-71
2022/12/23 08:02:13;;;;;;;;;;;;;;;;;;5029811;28;20031;-68
2022/12/23 08:04:39;;;;;;;;;;;;;;;;;;5030268;28;20035;-67
2022/12/23 08:07:04;;;;;;;;;;;;;;;;;;5029782;28;19913;-67
2022/12/23 08:09:30;;;;;;;;;;;;;;;;;;5030135;28;20000;-67
2022/12/23 08:11:56;;;;;;;;;;;;;;;;;;5029997;28;19959;-67
2022/12/23 08:14:22;;;;;;;;;;;;;;;;;;5029509;28;19921;-67
2022/12/23 08:16:48;;;;;;;;;;;;;;;;;;5023324;28;19923;-67
2022/12/23 08:19:14;;;;;;;;;;;;;;;;;;5030113;28;19940;-67
2022/12/23 08:21:40;;;;;;;;;;;;;;;;;;5029472;28;19955;-67
2022/12/23 08:24:06;;;;;;;;;;;;;;;;;;5028573;28;19921;-67
2022/12/23 08:26:32;;;;;;;;;;;;;;;;;;5028785;28;20382;-66
2022/12/23 08:28:57;;;;;;;;;;;;;;;;;;5028917;28;19955;-66
2022/12/23 08:31:23;;;;;;;;;;;;;;;;;;5028806;28;19996;-61
2022/12/23 08:33:49;;;;;;;;;;;;;;;;;;5028523;28;19917;-61
2022/12/23 08:36:15;;;;;;;;;;;;;;;;;;5029075;28;19913;-62
2022/12/23 08:38:41;;;;;;;;;;;;;;;;;;5029412;28;19947;-62
2022/12/23 08:41:07;;;;;;;;;;;;;;;;;;5028913;28;19921;-62
2022/12/23 08:43:33;;;;;;;;;;;;;;;;;;5028834;28;19921;-62
2022/12/23 08:45:59;;;;;;;;;;;;;;;;;;5028834;28;19924;-63
2022/12/23 08:48:25;;;;;;;;;;;;;;;;;;5028658;28;20029;-62
2022/12/23 08:50:50;;;;;;;;;;;;;;;;;;5029550;28;19913;-62
2022/12/23 08:53:16;;;;;;;;;;;;;;;;;;5029177;28;20366;-62
2022/12/23 08:55:42;;;;;;;;;;;;;;;;;;5029634;28;19963;-62
2022/12/23 08:58:08;;;;;;;;;;;;;;;;;;5028928;28;19913;-62
2022/12/23 09:00:34;;;;;;;;;;;;;;;;;;5026532;28;19922;-63
2022/12/23 09:03:00;;;;;;;;;;;;;;;;;;5025677;28;20414;-65
2022/12/23 09:05:26;;;;;;;;;;;;;;;;;;5025582;28;19924;-65
2022/12/23 09:07:52;;;;;;;;;;;;;;;;;;5026564;28;19917;-65
2022/12/23 09:10:18;;;;;;;;;;;;;;;;;;5040529;28;19913;-64
2022/12/23 09:12:43;;;;;;;;;;;;;;;;;;5026648;28;19960;-64
2022/12/23 09:15:09;;;;;;;;;;;;;;;;;;5027150;28;19967;-64
2022/12/23 09:17:35;;;;;;;;;;;;;;;;;;5026544;28;19995;-64
2022/12/23 09:20:01;;;;;;;;;;;;;;;;;;5026710;28;19917;-65
2022/12/23 09:22:27;;;;;;;;;;;;;;;;;;5027128;28;19928;-64
2022/12/23 09:24:54;;;;;;;;;;;;;;;;;;5027157;28;19916;-65
2022/12/23 09:27:20;;;;;;;;;;;;;;;;;;5026881;28;19917;-65
2022/12/23 09:29:46;;;;;;;;;;;;;;;;;;5026927;28;19919;-64
2022/12/23 09:32:12;;;;;;;;;;;;;;;;;;5026730;28;20480;-64
2022/12/23 09:34:38;;;;;;;;;;;;;;;;;;5026951;28;19956;-65
2022/12/23 09:37:04;;;;;;;;;;;;;;;;;;5027093;28;19917;-65
2022/12/23 09:39:30;;;;;;;;;;;;;;;;;;5027225;28;19917;-65
2022/12/23 09:42:00;;;;;;;;;;;;;;;;;;5026236;28;19914;-65
2022/12/23 09:44:25;;;;;;;;;;;;;;;;;;5026188;28;20356;-65
2022/12/23 09:46:54;;;;;;;;;;;;;;;;;;5029480;28;19917;-65
2022/12/23 09:49:20;;;;;;;;;;;;;;;;;;5029671;28;19920;-65
2022/12/23 09:51:46;;;;;;;;;;;;;;;;;;5030196;28;20282;-65
2022/12/23 09:54:12;;;;;;;;;;;;;;;;;;5030924;28;19971;-63
2022/12/23 09:56:38;;;;;;;;;;;;;;;;;;5031749;28;19940;-65
2022/12/23 09:59:04;;;;;;;;;;;;;;;;;;5032480;28;20354;-65
2022/12/23 10:01:30;;;;;;;;;;;;;;;;;;5032817;28;19924;-64
2022/12/23 10:03:55;;;;;;;;;;;;;;;;;;5031977;28;20275;-65
2022/12/23 10:06:21;;;;;;;;;;;;;;;;;;5032124;28;19913;-65
2022/12/23 10:08:47;;;;;;;;;;;;;;;;;;5025481;28;20294;-63
2022/12/23 10:11:13;;;;;;;;;;;;;;;;;;5031901;28;20384;-65
2022/12/23 10:13:39;;;;;;;;;;;;;;;;;;5031877;28;19931;-64
2022/12/23 10:16:05;;;;;;;;;;;;;;;;;;5032137;28;20047;-64
2022/12/23 10:18:31;;;;;;;;;;;;;;;;;;5032182;28;19960;-64
2022/12/23 10:20:57;;;;;;;;;;;;;;;;;;5031862;28;19913;-64
2022/12/23 10:23:23;;;;;;;;;;;;;;;;;;5025041;28;19952;-65
2022/12/23 10:25:49;;;;;;;;;;;;;;;;;;5031538;28;19929;-64
2022/12/23 10:28:15;;;;;;;;;;;;;;;;;;5031903;28;20384;-64
2022/12/23 10:30:41;;;;;;;;;;;;;;;;;;5032295;28;19982;-65
2022/12/23 10:33:07;;;;;;;;;;;;;;;;;;5032115;28;19952;-64
2022/12/23 10:35:33;;;;;;;;;;;;;;;;;;5031830;28;20401;-65
2022/12/23 10:37:59;;;;;;;;;;;;;;;;;;5031613;28;19915;-62
2022/12/23 10:40:25;;;;;;;;;;;;;;;;;;5031396;28;19917;-64
2022/12/23 10:42:51;;;;;;;;;;;;;;;;;;5031866;28;19923;-64
2022/12/23 10:45:16;;;;;;;;;;;;;;;;;;5031449;28;20282;-63
2022/12/23 10:47:42;;;;;;;;;;;;;;;;;;5031535;28;19913;-65
2022/12/23 10:50:08;;;;;;;;;;;;;;;;;;5031642;28;20432;-64
2022/12/23 10:52:34;;;;;;;;;;;;;;;;;;5031589;28;19951;-65
2022/12/23 10:55:00;;;;;;;;;;;;;;;;;;5031309;28;19952;-64
2022/12/23 10:57:26;;;;;;;;;;;;;;;;;;5031674;28;19917;-65
2022/12/23 10:59:52;;;;;;;;;;;;;;;;;;5031559;28;20374;-64
2022/12/23 11:02:18;;;;;;;;;;;;;;;;;;5031548;28;19914;-64
2022/12/23 11:04:44;;;;;;;;;;;;;;;;;;5031204;28;19921;-65
2022/12/23 11:07:09;;;;;;;;;;;;;;;;;;5031264;28;19913;-65
2022/12/23 11:09:35;;;;;;;;;;;;;;;;;;5030742;28;19988;-65
2022/12/23 11:12:01;;;;;;;;;;;;;;;;;;5029241;28;19952;-65
2022/12/23 11:14:27;;;;;;;;;;;;;;;;;;5026058;28;19936;-65
2022/12/23 11:16:53;;;;;;;;;;;;;;;;;;5031481;28;20271;-65
2022/12/23 11:19:19;;;;;;;;;;;;;;;;;;5030909;28;19913;-65
2022/12/23 11:21:45;;;;;;;;;;;;;;;;;;5030699;28;20346;-64
2022/12/23 11:24:10;;;;;;;;;;;;;;;;;;5030335;28;20000;-65
2022/12/23 11:26:36;;;;;;;;;;;;;;;;;;5031168;28;20289;-65
2022/12/23 11:29:02;;;;;;;;;;;;;;;;;;5030739;28;19913;-64
2022/12/23 11:31:31;;;;;;;;;;;;;;;;;;5030834;28;19913;-64
2022/12/23 11:33:57;;;;;;;;;;;;;;;;;;5030947;28;19909;-65
2022/12/23 11:36:23;;;;;;;;;;;;;;;;;;5030506;28;19920;-64
2022/12/23 11:38:48;;;;;;;;;;;;;;;;;;5030693;28;19975;-65
2022/12/23 11:41:14;;;;;;;;;;;;;;;;;;5031328;28;20332;-65
2022/12/23 11:43:40;;;;;;;;;;;;;;;;;;5030448;28;19949;-65
2022/12/23 11:46:06;;;;;;;;;;;;;;;;;;5030897;28;20321;-64
2022/12/23 11:48:32;;;;;;;;;;;;;;;;;;5030496;28;19963;-65
2022/12/23 11:50:58;;;;;;;;;;;;;;;;;;5030343;28;20501;-65
2022/12/23 11:53:24;;;;;;;;;;;;;;;;;;5029978;28;19913;-64
2022/12/23 11:55:50;;;;;;;;;;;;;;;;;;5030875;28;19957;-65
2022/12/23 11:58:16;;;;;;;;;;;;;;;;;;5026452;28;20341;-64
2022/12/23 12:00:42;;;;;;;;;;;;;;;;;;5027451;28;19920;-64
2022/12/23 12:03:07;;;;;;;;;;;;;;;;;;5030184;28;19975;-65
2022/12/23 12:05:33;;;;;;;;;;;;;;;;;;5029905;28;20369;-65
2022/12/23 12:07:59;;;;;;;;;;;;;;;;;;5029264;28;19913;-65
2022/12/23 12:10:25;;;;;;;;;;;;;;;;;;5030356;28;20008;-65
2022/12/23 12:12:51;;;;;;;;;;;;;;;;;;5029852;28;20341;-65
2022/12/23 12:15:17;;;;;;;;;;;;;;;;;;5030157;28;19961;-65
2022/12/23 12:17:43;;;;;;;;;;;;;;;;;;5029938;28;19913;-63
2022/12/23 12:20:09;;;;;;;;;;;;;;;;;;5029473;28;19920;-65
2022/12/23 12:22:35;;;;;;;;;;;;;;;;;;5030158;28;19956;-64
2022/12/23 12:25:00;;;;;;;;;;;;;;;;;;5029779;28;19952;-65
2022/12/23 12:27:26;;;;;;;;;;;;;;;;;;5029983;28;19963;-65
2022/12/23 12:29:52;;;;;;;;;;;;;;;;;;5030037;28;20389;-65
2022/12/23 12:32:18;;;;;;;;;;;;;;;;;;5029625;28;19913;-64
2022/12/23 12:34:44;;;;;;;;;;;;;;;;;;5022616;28;20374;-65
2022/12/23 12:37:10;;;;;;;;;;;;;;;;;;5022891;28;19913;-65
2022/12/23 12:39:36;;;;;;;;;;;;;;;;;;5029397;28;19917;-64
2022/12/23 12:42:02;;;;;;;;;;;;;;;;;;5029308;28;19952;-65
2022/12/23 12:44:28;;;;;;;;;;;;;;;;;;5030078;28;19944;-65
2022/12/23 12:46:54;;;;;;;;;;;;;;;;;;5029310;28;19991;-65
2022/12/23 12:49:20;;;;;;;;;;;;;;;;;;5029029;28;19913;-65
2022/12/23 12:51:45;;;;;;;;;;;;;;;;;;5029225;28;20310;-64
2022/12/23 12:54:11;;;;;;;;;;;;;;;;;;5029341;28;19913;-65
2022/12/23 12:56:37;;;;;;;;;;;;;;;;;;5029554;28;19952;-65
2022/12/23 12:59:03;;;;;;;;;;;;;;;;;;5029592;28;19909;-65
2022/12/23 13:01:29;;;;;;;;;;;;;;;;;;5029521;28;19913;-65
2022/12/23 13:03:55;;;;;;;;;;;;;;;;;;5028910;28;19927;-65
2022/12/23 13:06:21;;;;;;;;;;;;;;;;;;5029076;28;19913;-64
2022/12/23 13:08:47;;;;;;;;;;;;;;;;;;5029211;28;20003;-64
2022/12/23 13:11:13;;;;;;;;;;;;;;;;;;5029338;28;19917;-64
2022/12/23 13:13:39;;;;;;;;;;;;;;;;;;5029030;28;20394;-64
2022/12/23 13:16:05;;;;;;;;;;;;;;;;;;5029080;28;19914;-65
2022/12/23 13:18:31;;;;;;;;;;;;;;;;;;5028698;28;19920;-66
2022/12/23 13:20:57;;;;;;;;;;;;;;;;;;5031239;28;19920;-65
2022/12/23 13:23:22;;;;;;;;;;;;;;;;;;5033061;28;19921;-65
2022/12/23 13:25:48;;;;;;;;;;;;;;;;;;5033293;28;20402;-65
2022/12/23 13:28:14;;;;;;;;;;;;;;;;;;5033072;28;19909;-64
2022/12/23 13:30:40;;;;;;;;;;;;;;;;;;5033066;28;20389;-65
2022/12/23 13:33:06;;;;;;;;;;;;;;;;;;5032950;28;19913;-65
2022/12/23 13:35:32;;;;;;;;;;;;;;;;;;5026584;28;19916;-65
2022/12/23 13:37:58;;;;;;;;;;;;;;;;;;5032886;28;20055;-65
2022/12/23 13:40:24;;;;;;;;;;;;;;;;;;5032595;28;20382;-64
2022/12/23 13:42:50;;;;;;;;;;;;;;;;;;5032896;28;19923;-64
2022/12/23 13:45:16;;;;;;;;;;;;;;;;;;5032872;28;19913;-64
2022/12/23 13:47:42;;;;;;;;;;;;;;;;;;5032130;28;19955;-64
2022/12/23 13:50:08;;;;;;;;;;;;;;;;;;5032540;28;19959;-63
2022/12/23 13:52:34;;;;;;;;;;;;;;;;;;5032271;28;19913;-66
2022/12/23 13:54:59;;;;;;;;;;;;;;;;;;5027135;28;19916;-65
2022/12/23 13:57:25;;;;;;;;;;;;;;;;;;5029887;28;20418;-63
2022/12/23 13:59:51;;;;;;;;;;;;;;;;;;5030548;28;19922;-65
2022/12/23 14:02:17;;;;;;;;;;;;;;;;;;5030349;28;20453;-65
2022/12/23 14:04:43;;;;;;;;;;;;;;;;;;5031519;28;19952;-65
2022/12/23 14:07:09;;;;;;;;;;;;;;;;;;5030993;28;20401;-65
2022/12/23 14:09:35;;;;;;;;;;;;;;;;;;5029724;28;19913;-65
2022/12/23 14:12:01;;;;;;;;;;;;;;;;;;5029261;28;20039;-65
2022/12/23 14:14:27;;;;;;;;;;;;;;;;;;5029081;28;20659;-65
2022/12/23 14:16:53;;;;;;;;;;;;;;;;;;5028501;28;20016;-64
2022/12/23 14:19:19;;;;;;;;;;;;;;;;;;5029436;28;19924;-64
2022/12/23 14:21:44;;;;;;;;;;;;;;;;;;5029261;28;19917;-65
2022/12/23 14:24:10;;;;;;;;;;;;;;;;;;5028850;28;19932;-65
2022/12/23 14:26:36;;;;;;;;;;;;;;;;;;5028737;28;20459;-65
2022/12/23 14:29:02;;;;;;;;;;;;;;;;;;5028741;28;19913;-65
2022/12/23 14:31:28;;;;;;;;;;;;;;;;;;5028146;28;19935;-65
2022/12/23 14:33:54;;;;;;;;;;;;;;;;;;5029043;28;19991;-65
2022/12/23 14:36:20;;;;;;;;;;;;;;;;;;5029592;28;20477;-66
2022/12/23 14:38:46;;;;;;;;;;;;;;;;;;5026588;28;19921;-65
2022/12/23 14:41:12;;;;;;;;;;;;;;;;;;5028371;28;20400;-64
2022/12/23 14:43:38;;;;;;;;;;;;;;;;;;5027923;28;19961;-65
2022/12/23 14:46:04;;;;;;;;;;;;;;;;;;5028048;28;19960;-63
2022/12/23 14:48:30;;;;;;;;;;;;;;;;;;5028148;28;19913;-64
2022/12/23 14:50:56;;;;;;;;;;;;;;;;;;5027163;28;19922;-65
2022/12/23 14:53:22;;;;;;;;;;;;;;;;;;5027571;28;19971;-64
2022/12/23 14:55:48;;;;;;;;;;;;;;;;;;5028064;28;20366;-64
2022/12/23 14:58:13;;;;;;;;;;;;;;;;;;5027974;28;19948;-65
2022/12/23 15:00:39;;;;;;;;;;;;;;;;;;5027721;28;19914;-65
2022/12/23 15:03:05;;;;;;;;;;;;;;;;;;5026353;28;20007;-65
2022/12/23 15:05:31;;;;;;;;;;;;;;;;;;5028241;28;20149;-65
2022/12/23 15:07:57;;;;;;;;;;;;;;;;;;5028073;28;20306;-65
2022/12/23 15:10:24;;;;;;;;;;;;;;;;;;5028498;28;19952;-64
2022/12/23 15:12:50;;;;;;;;;;;;;;;;;;4958947;28;1980505;-66
2022/12/23 15:15:16;;;;;;;;;;;;;;;;;;5028571;28;19913;-66
2022/12/23 15:17:44;;;;;;;;;;;;;;;;;;5028746;28;19994;-65
2022/12/23 15:20:13;;;;;;;;;;;;;;;;;;5029769;28;19920;-66
2022/12/23 15:22:39;;;;;;;;;;;;;;;;;;5028151;28;19925;-65
2022/12/23 15:25:05;;;;;;;;;;;;;;;;;;5029887;28;20285;-65
2022/12/23 15:27:31;;;;;;;;;;;;;;;;;;5029299;28;19909;-65
2022/12/23 15:29:57;;;;;;;;;;;;;;;;;;5028123;28;19917;-66
2022/12/23 15:32:23;;;;;;;;;;;;;;;;;;5028343;28;19918;-65
2022/12/23 15:34:49;;;;;;;;;;;;;;;;;;5028109;28;19923;-64
2022/12/23 15:37:15;;;;;;;;;;;;;;;;;;5028048;28;20531;-65
2022/12/23 15:39:42;;;;;;;;;;;;;;;;;;5028444;28;19952;-65
2022/12/23 15:42:08;;;;;;;;;;;;;;;;;;5028567;28;20332;-65
2022/12/23 15:44:34;;;;;;;;;;;;;;;;;;5027252;28;20389;-65
2022/12/23 15:47:00;;;;;;;;;;;;;;;;;;5027859;28;19917;-65
2022/12/23 15:49:26;;;;;;;;;;;;;;;;;;5026552;28;19917;-65
2022/12/23 15:51:52;;;;;;;;;;;;;;;;;;5027368;28;20378;-66
2022/12/23 15:54:17;;;;;;;;;;;;;;;;;;5026931;28;19923;-66
2022/12/23 15:56:43;;;;;;;;;;;;;;;;;;5027907;28;19913;-66
2022/12/23 15:59:09;;;;;;;;;;;;;;;;;;5027651;28;20375;-65
2022/12/23 16:01:35;;;;;;;;;;;;;;;;;;5025357;28;19999;-66
2022/12/23 16:04:01;;;;;;;;;;;;;;;;;;5028229;28;19925;-65
2022/12/23 16:06:27;;;;;;;;;;;;;;;;;;5028073;28;19924;-65
2022/12/23 16:08:53;;;;;;;;;;;;;;;;;;5027810;28;20779;-66
2022/12/23 16:11:19;;;;;;;;;;;;;;;;;;5030865;28;19913;-65
2022/12/23 16:13:45;;;;;;;;;;;;;;;;;;5027204;28;19921;-65
2022/12/23 16:16:11;;;;;;;;;;;;;;;;;;5027968;28;20016;-65
2022/12/23 16:18:37;;;;;;;;;;;;;;;;;;5027484;28;19987;-66
2022/12/23 16:21:03;;;;;;;;;;;;;;;;;;5028053;28;19917;-66
2022/12/23 16:23:29;;;;;;;;;;;;;;;;;;5026996;28;19960;-66
2022/12/23 16:25:54;;;;;;;;;;;;;;;;;;5026615;28;20400;-66
2022/12/23 16:28:22;;;;;;;;;;;;;;;;;;5027357;28;19917;-67
2022/12/23 16:30:48;;;;;;;;;;;;;;;;;;5027115;28;20007;-66
2022/12/23 16:33:14;;;;;;;;;;;;;;;;;;5027129;28;20008;-66
2022/12/23 16:35:40;;;;;;;;;;;;;;;;;;5027036;28;19913;-66
2022/12/23 16:38:06;;;;;;;;;;;;;;;;;;5027995;28;19940;-66
2022/12/23 16:40:32;;;;;;;;;;;;;;;;;;5027641;28;19924;-67
2022/12/23 16:42:58;;;;;;;;;;;;;;;;;;5028067;28;20465;-66
2022/12/23 16:45:24;;;;;;;;;;;;;;;;;;5029045;28;19959;-67
2022/12/23 16:47:49;;;;;;;;;;;;;;;;;;5029372;28;20408;-66
2022/12/23 16:50:15;;;;;;;;;;;;;;;;;;5026991;28;20008;-65
2022/12/23 16:52:41;;;;;;;;;;;;;;;;;;5028681;28;19913;-66
2022/12/23 16:55:07;;;;;;;;;;;;;;;;;;5028367;28;19916;-66
2022/12/23 16:57:33;;;;;;;;;;;;;;;;;;5028370;28;19913;-66
2022/12/23 16:59:59;;;;;;;;;;;;;;;;;;5029371;28;19912;-64
2022/12/23 17:02:27;;;;;;;;;;;;;;;;;;5029819;28;19913;-66
2022/12/23 17:04:53;;;;;;;;;;;;;;;;;;5029507;28;19909;-67